sensor_id;sensor_type;location;lat;lon;timestamp;P1;durP1;ratioP1;P2;durP2;ratioP2
59938;SDS011;45801;51.810;19.444;2023-12-20T00:01:55;18.20;;;12.40;;
59938;SDS011;45801;51.810;19.444;2023-12-20T00:04:21;17.10;;;11.30;;
59938;SDS011;45801;51.810;19.444;2023-12-20T00:06:48;15.90;;;11.50;;
59938;SDS011;45801;51.810;19.444;2023-12-20T00:09:15;16.10;;;10.70;;
59938;SDS011;45801;51.810;19.444;2023-12-20T00:11:41;15.00;;;10.60;;
59938;SDS011;45801;51.810;19.444;2023-12-20T00:14:08;15.60;;;9.30;;
59938;SDS011;45801;51.810;19.444;2023-12-20T00:16:35;15.10;;;10.90;;
59938;SDS011;45801;51.810;19.444;2023-12-20T00:19:01;15.60;;;10.60;;
59938;SDS011;45801;51.810;19.444;2023-12-20T00:21:28;17.30;;;10.70;;
59938;SDS011;45801;51.810;19.444;2023-12-20T00:23:54;14.30;;;10.30;;
59938;SDS011;45801;51.810;19.444;2023-12-20T00:26:21;15.90;;;10.70;;
59938;SDS011;45801;51.810;19.444;2023-12-20T00:28:47;15.90;;;10.30;;
59938;SDS011;45801;51.810;19.444;2023-12-20T00:31:14;13.90;;;9.60;;
59938;SDS011;45801;51.810;19.444;2023-12-20T00:33:40;16.00;;;9.80;;
59938;SDS011;45801;51.810;19.444;2023-12-20T00:36:09;14.10;;;8.70;;
59938;SDS011;45801;51.810;19.444;2023-12-20T00:38:36;16.30;;;10.20;;
59938;SDS011;45801;51.810;19.444;2023-12-20T00:41:03;13.10;;;8.90;;
59938;SDS011;45801;51.810;19.444;2023-12-20T00:43:29;13.90;;;8.00;;
59938;SDS011;45801;51.810;19.444;2023-12-20T00:45:56;14.10;;;9.10;;
59938;SDS011;45801;51.810;19.444;2023-12-20T00:48:23;15.00;;;9.10;;
59938;SDS011;45801;51.810;19.444;2023-12-20T00:50:50;13.00;;;9.40;;
59938;SDS011;45801;51.810;19.444;2023-12-20T00:53:16;14.60;;;9.00;;
59938;SDS011;45801;51.810;19.444;2023-12-20T00:55:42;12.90;;;8.60;;
59938;SDS011;45801;51.810;19.444;2023-12-20T00:58:11;12.40;;;8.00;;
59938;SDS011;45801;51.810;19.444;2023-12-20T01:00:37;12.40;;;7.70;;
59938;SDS011;45801;51.810;19.444;2023-12-20T01:03:04;11.50;;;6.60;;
59938;SDS011;45801;51.810;19.444;2023-12-20T01:05:31;12.20;;;7.60;;
59938;SDS011;45801;51.810;19.444;2023-12-20T01:07:57;13.40;;;7.90;;
59938;SDS011;45801;51.810;19.444;2023-12-20T01:10:24;11.90;;;7.20;;
59938;SDS011;45801;51.810;19.444;2023-12-20T01:12:54;13.50;;;7.80;;
59938;SDS011;45801;51.810;19.444;2023-12-20T01:15:20;13.70;;;8.10;;
59938;SDS011;45801;51.810;19.444;2023-12-20T01:17:47;11.10;;;7.00;;
59938;SDS011;45801;51.810;19.444;2023-12-20T01:20:15;11.40;;;7.70;;
59938;SDS011;45801;51.810;19.444;2023-12-20T01:22:43;12.00;;;6.30;;
59938;SDS011;45801;51.810;19.444;2023-12-20T01:25:12;11.40;;;7.20;;
59938;SDS011;45801;51.810;19.444;2023-12-20T01:27:38;10.20;;;5.80;;
59938;SDS011;45801;51.810;19.444;2023-12-20T01:30:05;10.50;;;6.50;;
59938;SDS011;45801;51.810;19.444;2023-12-20T01:32:32;10.20;;;6.00;;
59938;SDS011;45801;51.810;19.444;2023-12-20T01:34:59;10.10;;;6.50;;
59938;SDS011;45801;51.810;19.444;2023-12-20T01:37:25;10.30;;;6.50;;
59938;SDS011;45801;51.810;19.444;2023-12-20T01:39:52;9.50;;;5.60;;
59938;SDS011;45801;51.810;19.444;2023-12-20T01:42:19;10.70;;;6.40;;
59938;SDS011;45801;51.810;19.444;2023-12-20T01:44:46;9.20;;;5.40;;
59938;SDS011;45801;51.810;19.444;2023-12-20T01:47:14;11.80;;;7.50;;
59938;SDS011;45801;51.810;19.444;2023-12-20T01:49:40;10.50;;;6.90;;
59938;SDS011;45801;51.810;19.444;2023-12-20T01:52:07;10.70;;;6.70;;
59938;SDS011;45801;51.810;19.444;2023-12-20T01:54:35;11.20;;;6.40;;
59938;SDS011;45801;51.810;19.444;2023-12-20T01:57:02;10.20;;;6.70;;
59938;SDS011;45801;51.810;19.444;2023-12-20T01:59:30;10.90;;;6.90;;
59938;SDS011;45801;51.810;19.444;2023-12-20T02:01:57;10.80;;;6.70;;
59938;SDS011;45801;51.810;19.444;2023-12-20T02:04:24;10.30;;;6.00;;
59938;SDS011;45801;51.810;19.444;2023-12-20T02:06:52;10.50;;;6.70;;
59938;SDS011;45801;51.810;19.444;2023-12-20T02:09:19;10.20;;;6.20;;
59938;SDS011;45801;51.810;19.444;2023-12-20T02:11:45;11.20;;;7.20;;
59938;SDS011;45801;51.810;19.444;2023-12-20T02:14:12;11.70;;;6.60;;
59938;SDS011;45801;51.810;19.444;2023-12-20T02:16:39;11.30;;;6.00;;
59938;SDS011;45801;51.810;19.444;2023-12-20T02:19:06;9.90;;;6.60;;
59938;SDS011;45801;51.810;19.444;2023-12-20T02:21:39;13.50;;;6.80;;
59938;SDS011;45801;51.810;19.444;2023-12-20T02:24:05;10.00;;;6.00;;
59938;SDS011;45801;51.810;19.444;2023-12-20T02:26:32;9.70;;;5.60;;
59938;SDS011;45801;51.810;19.444;2023-12-20T02:29:00;10.20;;;6.20;;
59938;SDS011;45801;51.810;19.444;2023-12-20T02:31:28;8.20;;;4.80;;
59938;SDS011;45801;51.810;19.444;2023-12-20T02:33:55;9.70;;;6.00;;
59938;SDS011;45801;51.810;19.444;2023-12-20T02:36:21;11.10;;;6.40;;
59938;SDS011;45801;51.810;19.444;2023-12-20T02:38:48;9.80;;;5.90;;
59938;SDS011;45801;51.810;19.444;2023-12-20T02:41:14;9.40;;;5.70;;
59938;SDS011;45801;51.810;19.444;2023-12-20T02:43:43;8.50;;;5.20;;
59938;SDS011;45801;51.810;19.444;2023-12-20T02:46:10;9.50;;;5.60;;
59938;SDS011;45801;51.810;19.444;2023-12-20T02:48:38;11.10;;;7.40;;
59938;SDS011;45801;51.810;19.444;2023-12-20T02:51:05;10.20;;;6.70;;
59938;SDS011;45801;51.810;19.444;2023-12-20T02:53:31;9.10;;;5.50;;
59938;SDS011;45801;51.810;19.444;2023-12-20T02:55:58;15.30;;;10.70;;
59938;SDS011;45801;51.810;19.444;2023-12-20T02:58:24;12.30;;;7.30;;
59938;SDS011;45801;51.810;19.444;2023-12-20T03:00:51;12.50;;;8.50;;
59938;SDS011;45801;51.810;19.444;2023-12-20T03:03:17;11.40;;;7.70;;
59938;SDS011;45801;51.810;19.444;2023-12-20T03:05:44;10.90;;;6.50;;
59938;SDS011;45801;51.810;19.444;2023-12-20T03:08:12;10.40;;;6.60;;
59938;SDS011;45801;51.810;19.444;2023-12-20T03:10:38;9.40;;;5.90;;
59938;SDS011;45801;51.810;19.444;2023-12-20T03:13:05;8.90;;;5.80;;
59938;SDS011;45801;51.810;19.444;2023-12-20T03:15:31;9.90;;;6.70;;
59938;SDS011;45801;51.810;19.444;2023-12-20T03:17:58;9.70;;;6.20;;
59938;SDS011;45801;51.810;19.444;2023-12-20T03:20:25;10.30;;;6.20;;
59938;SDS011;45801;51.810;19.444;2023-12-20T03:22:55;10.20;;;6.50;;
59938;SDS011;45801;51.810;19.444;2023-12-20T03:25:21;10.40;;;6.20;;
59938;SDS011;45801;51.810;19.444;2023-12-20T03:27:48;9.70;;;5.60;;
59938;SDS011;45801;51.810;19.444;2023-12-20T03:30:14;10.40;;;6.10;;
59938;SDS011;45801;51.810;19.444;2023-12-20T03:32:41;11.70;;;6.50;;
59938;SDS011;45801;51.810;19.444;2023-12-20T03:35:16;12.70;;;6.90;;
59938;SDS011;45801;51.810;19.444;2023-12-20T03:37:42;19.50;;;9.70;;
59938;SDS011;45801;51.810;19.444;2023-12-20T03:40:09;11.90;;;6.80;;
59938;SDS011;45801;51.810;19.444;2023-12-20T03:42:36;10.00;;;5.50;;
59938;SDS011;45801;51.810;19.444;2023-12-20T03:45:03;11.10;;;6.60;;
59938;SDS011;45801;51.810;19.444;2023-12-20T03:47:30;10.90;;;6.30;;
59938;SDS011;45801;51.810;19.444;2023-12-20T03:49:56;9.40;;;6.00;;
59938;SDS011;45801;51.810;19.444;2023-12-20T03:52:23;9.10;;;5.70;;
59938;SDS011;45801;51.810;19.444;2023-12-20T03:54:49;10.80;;;5.70;;
59938;SDS011;45801;51.810;19.444;2023-12-20T03:57:18;9.10;;;4.70;;
59938;SDS011;45801;51.810;19.444;2023-12-20T03:59:45;8.00;;;4.60;;
59938;SDS011;45801;51.810;19.444;2023-12-20T04:02:13;8.70;;;5.30;;
59938;SDS011;45801;51.810;19.444;2023-12-20T04:04:39;7.70;;;4.60;;
59938;SDS011;45801;51.810;19.444;2023-12-20T04:07:06;8.00;;;5.00;;
59938;SDS011;45801;51.810;19.444;2023-12-20T04:09:32;8.10;;;4.90;;
59938;SDS011;45801;51.810;19.444;2023-12-20T04:12:00;7.90;;;4.70;;
59938;SDS011;45801;51.810;19.444;2023-12-20T04:14:27;8.80;;;4.90;;
59938;SDS011;45801;51.810;19.444;2023-12-20T04:16:54;8.80;;;4.40;;
59938;SDS011;45801;51.810;19.444;2023-12-20T04:19:21;7.00;;;3.50;;
59938;SDS011;45801;51.810;19.444;2023-12-20T04:21:48;8.40;;;4.50;;
59938;SDS011;45801;51.810;19.444;2023-12-20T04:24:14;8.00;;;4.50;;
59938;SDS011;45801;51.810;19.444;2023-12-20T04:26:41;7.10;;;4.00;;
59938;SDS011;45801;51.810;19.444;2023-12-20T04:29:07;8.30;;;4.10;;
59938;SDS011;45801;51.810;19.444;2023-12-20T04:31:34;7.20;;;3.90;;
59938;SDS011;45801;51.810;19.444;2023-12-20T04:34:02;7.50;;;4.10;;
59938;SDS011;45801;51.810;19.444;2023-12-20T04:36:29;7.10;;;3.80;;
59938;SDS011;45801;51.810;19.444;2023-12-20T04:38:56;6.60;;;3.60;;
59938;SDS011;45801;51.810;19.444;2023-12-20T04:41:22;7.90;;;4.80;;
59938;SDS011;45801;51.810;19.444;2023-12-20T04:43:49;7.10;;;3.50;;
59938;SDS011;45801;51.810;19.444;2023-12-20T04:46:16;7.10;;;3.80;;
59938;SDS011;45801;51.810;19.444;2023-12-20T04:48:43;7.00;;;3.70;;
59938;SDS011;45801;51.810;19.444;2023-12-20T04:51:11;7.90;;;4.20;;
59938;SDS011;45801;51.810;19.444;2023-12-20T04:53:37;7.80;;;3.90;;
59938;SDS011;45801;51.810;19.444;2023-12-20T04:56:04;7.80;;;3.90;;
59938;SDS011;45801;51.810;19.444;2023-12-20T04:58:30;7.50;;;3.90;;
59938;SDS011;45801;51.810;19.444;2023-12-20T05:00:57;7.10;;;4.10;;
59938;SDS011;45801;51.810;19.444;2023-12-20T05:03:26;7.60;;;4.00;;
59938;SDS011;45801;51.810;19.444;2023-12-20T05:05:53;7.00;;;3.60;;
59938;SDS011;45801;51.810;19.444;2023-12-20T05:08:21;7.50;;;4.20;;
59938;SDS011;45801;51.810;19.444;2023-12-20T05:10:47;7.40;;;4.00;;
59938;SDS011;45801;51.810;19.444;2023-12-20T05:13:18;7.40;;;4.10;;
59938;SDS011;45801;51.810;19.444;2023-12-20T05:15:45;7.30;;;4.00;;
59938;SDS011;45801;51.810;19.444;2023-12-20T05:18:12;7.60;;;4.00;;
59938;SDS011;45801;51.810;19.444;2023-12-20T05:20:40;7.70;;;4.80;;
59938;SDS011;45801;51.810;19.444;2023-12-20T05:23:09;8.80;;;5.20;;
59938;SDS011;45801;51.810;19.444;2023-12-20T05:25:36;8.40;;;5.10;;
59938;SDS011;45801;51.810;19.444;2023-12-20T05:28:09;8.70;;;4.60;;
59938;SDS011;45801;51.810;19.444;2023-12-20T05:30:40;8.30;;;5.00;;
59938;SDS011;45801;51.810;19.444;2023-12-20T05:33:06;7.90;;;4.30;;
59938;SDS011;45801;51.810;19.444;2023-12-20T05:35:34;8.70;;;4.90;;
59938;SDS011;45801;51.810;19.444;2023-12-20T05:38:02;7.90;;;4.80;;
59938;SDS011;45801;51.810;19.444;2023-12-20T05:40:29;9.50;;;5.10;;
59938;SDS011;45801;51.810;19.444;2023-12-20T05:42:55;9.00;;;4.80;;
59938;SDS011;45801;51.810;19.444;2023-12-20T05:45:22;8.90;;;5.30;;
59938;SDS011;45801;51.810;19.444;2023-12-20T05:47:49;8.60;;;4.80;;
59938;SDS011;45801;51.810;19.444;2023-12-20T05:50:15;8.20;;;5.10;;
59938;SDS011;45801;51.810;19.444;2023-12-20T05:52:46;8.10;;;5.20;;
59938;SDS011;45801;51.810;19.444;2023-12-20T05:55:13;8.80;;;4.80;;
59938;SDS011;45801;51.810;19.444;2023-12-20T05:57:40;9.60;;;4.80;;
59938;SDS011;45801;51.810;19.444;2023-12-20T06:00:06;9.40;;;5.50;;
59938;SDS011;45801;51.810;19.444;2023-12-20T06:02:34;7.80;;;4.80;;
59938;SDS011;45801;51.810;19.444;2023-12-20T06:05:00;10.80;;;5.40;;
59938;SDS011;45801;51.810;19.444;2023-12-20T06:07:28;8.00;;;3.90;;
59938;SDS011;45801;51.810;19.444;2023-12-20T06:09:54;8.50;;;4.70;;
59938;SDS011;45801;51.810;19.444;2023-12-20T06:12:21;8.10;;;4.40;;
59938;SDS011;45801;51.810;19.444;2023-12-20T06:14:47;7.50;;;3.90;;
59938;SDS011;45801;51.810;19.444;2023-12-20T06:17:14;7.50;;;4.10;;
59938;SDS011;45801;51.810;19.444;2023-12-20T06:19:41;6.90;;;3.40;;
59938;SDS011;45801;51.810;19.444;2023-12-20T06:22:08;7.80;;;4.10;;
59938;SDS011;45801;51.810;19.444;2023-12-20T06:24:35;7.70;;;4.60;;
59938;SDS011;45801;51.810;19.444;2023-12-20T06:27:02;7.50;;;4.40;;
59938;SDS011;45801;51.810;19.444;2023-12-20T06:29:28;8.40;;;4.30;;
59938;SDS011;45801;51.810;19.444;2023-12-20T06:31:55;8.50;;;4.30;;
59938;SDS011;45801;51.810;19.444;2023-12-20T06:34:21;8.10;;;4.10;;
59938;SDS011;45801;51.810;19.444;2023-12-20T06:36:49;8.30;;;4.20;;
59938;SDS011;45801;51.810;19.444;2023-12-20T06:39:16;16.70;;;11.60;;
59938;SDS011;45801;51.810;19.444;2023-12-20T06:41:42;9.80;;;6.30;;
59938;SDS011;45801;51.810;19.444;2023-12-20T06:44:15;8.50;;;5.60;;
59938;SDS011;45801;51.810;19.444;2023-12-20T06:46:44;9.40;;;6.00;;
59938;SDS011;45801;51.810;19.444;2023-12-20T06:49:10;8.90;;;5.90;;
59938;SDS011;45801;51.810;19.444;2023-12-20T06:51:38;8.70;;;5.40;;
59938;SDS011;45801;51.810;19.444;2023-12-20T06:54:05;8.00;;;5.50;;
59938;SDS011;45801;51.810;19.444;2023-12-20T06:56:31;7.70;;;4.10;;
59938;SDS011;45801;51.810;19.444;2023-12-20T06:58:58;9.30;;;6.10;;
59938;SDS011;45801;51.810;19.444;2023-12-20T07:01:25;8.80;;;5.40;;
59938;SDS011;45801;51.810;19.444;2023-12-20T07:03:53;10.30;;;6.30;;
59938;SDS011;45801;51.810;19.444;2023-12-20T07:06:19;9.20;;;5.70;;
59938;SDS011;45801;51.810;19.444;2023-12-20T07:08:47;10.00;;;6.10;;
59938;SDS011;45801;51.810;19.444;2023-12-20T07:11:13;9.80;;;6.20;;
59938;SDS011;45801;51.810;19.444;2023-12-20T07:13:40;9.30;;;5.60;;
59938;SDS011;45801;51.810;19.444;2023-12-20T07:16:06;8.80;;;5.00;;
59938;SDS011;45801;51.810;19.444;2023-12-20T07:18:33;9.10;;;5.30;;
59938;SDS011;45801;51.810;19.444;2023-12-20T07:21:00;7.80;;;4.60;;
59938;SDS011;45801;51.810;19.444;2023-12-20T07:23:26;8.30;;;4.80;;
59938;SDS011;45801;51.810;19.444;2023-12-20T07:25:53;9.20;;;5.30;;
59938;SDS011;45801;51.810;19.444;2023-12-20T07:28:19;8.00;;;4.70;;
59938;SDS011;45801;51.810;19.444;2023-12-20T07:30:46;8.80;;;5.30;;
59938;SDS011;45801;51.810;19.444;2023-12-20T07:33:13;8.10;;;4.60;;
59938;SDS011;45801;51.810;19.444;2023-12-20T07:35:40;8.40;;;5.50;;
59938;SDS011;45801;51.810;19.444;2023-12-20T07:38:06;8.30;;;5.30;;
59938;SDS011;45801;51.810;19.444;2023-12-20T07:40:33;9.20;;;4.90;;
59938;SDS011;45801;51.810;19.444;2023-12-20T07:42:59;8.10;;;4.40;;
59938;SDS011;45801;51.810;19.444;2023-12-20T07:45:26;9.10;;;5.50;;
59938;SDS011;45801;51.810;19.444;2023-12-20T07:47:53;9.10;;;5.10;;
59938;SDS011;45801;51.810;19.444;2023-12-20T07:50:19;8.60;;;4.90;;
59938;SDS011;45801;51.810;19.444;2023-12-20T07:52:46;8.10;;;4.60;;
59938;SDS011;45801;51.810;19.444;2023-12-20T07:55:12;8.20;;;4.50;;
59938;SDS011;45801;51.810;19.444;2023-12-20T07:57:39;9.10;;;5.20;;
59938;SDS011;45801;51.810;19.444;2023-12-20T08:00:06;9.00;;;5.70;;
59938;SDS011;45801;51.810;19.444;2023-12-20T08:02:33;9.40;;;4.70;;
59938;SDS011;45801;51.810;19.444;2023-12-20T08:05:00;7.60;;;4.20;;
59938;SDS011;45801;51.810;19.444;2023-12-20T08:07:27;7.70;;;4.50;;
59938;SDS011;45801;51.810;19.444;2023-12-20T08:09:54;8.00;;;4.50;;
59938;SDS011;45801;51.810;19.444;2023-12-20T08:12:22;7.50;;;4.00;;
59938;SDS011;45801;51.810;19.444;2023-12-20T08:14:49;7.20;;;4.10;;
59938;SDS011;45801;51.810;19.444;2023-12-20T08:17:15;8.60;;;4.50;;
59938;SDS011;45801;51.810;19.444;2023-12-20T08:19:42;7.80;;;4.70;;
59938;SDS011;45801;51.810;19.444;2023-12-20T08:22:09;8.20;;;4.20;;
59938;SDS011;45801;51.810;19.444;2023-12-20T08:24:35;7.50;;;4.00;;
59938;SDS011;45801;51.810;19.444;2023-12-20T08:27:02;7.70;;;4.20;;
59938;SDS011;45801;51.810;19.444;2023-12-20T08:29:29;7.20;;;3.90;;
59938;SDS011;45801;51.810;19.444;2023-12-20T08:31:55;7.90;;;3.90;;
59938;SDS011;45801;51.810;19.444;2023-12-20T08:34:23;7.90;;;4.10;;
59938;SDS011;45801;51.810;19.444;2023-12-20T08:36:50;7.80;;;4.30;;
59938;SDS011;45801;51.810;19.444;2023-12-20T08:39:17;7.00;;;4.10;;
59938;SDS011;45801;51.810;19.444;2023-12-20T08:41:44;8.70;;;5.00;;
59938;SDS011;45801;51.810;19.444;2023-12-20T08:44:10;7.40;;;4.00;;
59938;SDS011;45801;51.810;19.444;2023-12-20T08:46:37;7.70;;;3.80;;
59938;SDS011;45801;51.810;19.444;2023-12-20T08:49:04;7.40;;;4.10;;
59938;SDS011;45801;51.810;19.444;2023-12-20T08:51:31;8.50;;;4.60;;
59938;SDS011;45801;51.810;19.444;2023-12-20T08:53:57;8.70;;;4.40;;
59938;SDS011;45801;51.810;19.444;2023-12-20T08:56:24;8.30;;;4.50;;
59938;SDS011;45801;51.810;19.444;2023-12-20T08:58:50;6.80;;;3.40;;
59938;SDS011;45801;51.810;19.444;2023-12-20T09:01:17;8.30;;;4.80;;
59938;SDS011;45801;51.810;19.444;2023-12-20T09:03:44;8.00;;;4.70;;
59938;SDS011;45801;51.810;19.444;2023-12-20T09:06:10;7.70;;;3.80;;
59938;SDS011;45801;51.810;19.444;2023-12-20T09:08:37;7.40;;;3.90;;
59938;SDS011;45801;51.810;19.444;2023-12-20T09:13:56;9.10;;;4.80;;
59938;SDS011;45801;51.810;19.444;2023-12-20T09:16:22;9.70;;;5.10;;
59938;SDS011;45801;51.810;19.444;2023-12-20T09:18:49;8.40;;;4.60;;
59938;SDS011;45801;51.810;19.444;2023-12-20T09:21:16;11.90;;;8.90;;
59938;SDS011;45801;51.810;19.444;2023-12-20T09:23:43;9.40;;;7.00;;
59938;SDS011;45801;51.810;19.444;2023-12-20T09:26:09;8.90;;;5.00;;
59938;SDS011;45801;51.810;19.444;2023-12-20T09:28:36;8.70;;;5.70;;
59938;SDS011;45801;51.810;19.444;2023-12-20T09:31:03;8.30;;;4.50;;
59938;SDS011;45801;51.810;19.444;2023-12-20T09:33:31;8.40;;;5.10;;
59938;SDS011;45801;51.810;19.444;2023-12-20T09:35:58;8.50;;;5.10;;
59938;SDS011;45801;51.810;19.444;2023-12-20T09:38:25;7.80;;;4.20;;
59938;SDS011;45801;51.810;19.444;2023-12-20T09:40:51;9.10;;;6.00;;
59938;SDS011;45801;51.810;19.444;2023-12-20T09:43:18;8.60;;;4.40;;
59938;SDS011;45801;51.810;19.444;2023-12-20T09:45:49;7.60;;;4.00;;
59938;SDS011;45801;51.810;19.444;2023-12-20T09:48:19;7.90;;;4.20;;
59938;SDS011;45801;51.810;19.444;2023-12-20T09:50:46;7.70;;;4.30;;
59938;SDS011;45801;51.810;19.444;2023-12-20T09:53:15;7.30;;;4.10;;
59938;SDS011;45801;51.810;19.444;2023-12-20T09:55:42;10.30;;;5.70;;
59938;SDS011;45801;51.810;19.444;2023-12-20T09:58:09;7.70;;;4.80;;
59938;SDS011;45801;51.810;19.444;2023-12-20T10:00:35;9.40;;;4.90;;
59938;SDS011;45801;51.810;19.444;2023-12-20T10:03:02;8.20;;;4.20;;
59938;SDS011;45801;51.810;19.444;2023-12-20T10:05:32;8.50;;;4.10;;
59938;SDS011;45801;51.810;19.444;2023-12-20T10:08:00;7.90;;;3.50;;
59938;SDS011;45801;51.810;19.444;2023-12-20T10:10:27;7.50;;;4.00;;
59938;SDS011;45801;51.810;19.444;2023-12-20T10:15:35;7.80;;;3.80;;
59938;SDS011;45801;51.810;19.444;2023-12-20T10:18:03;8.10;;;4.60;;
59938;SDS011;45801;51.810;19.444;2023-12-20T10:20:30;8.30;;;4.90;;
59938;SDS011;45801;51.810;19.444;2023-12-20T10:22:58;9.40;;;5.20;;
59938;SDS011;45801;51.810;19.444;2023-12-20T10:25:25;9.00;;;4.70;;
59938;SDS011;45801;51.810;19.444;2023-12-20T10:30:39;7.80;;;4.20;;
59938;SDS011;45801;51.810;19.444;2023-12-20T10:33:06;8.80;;;4.30;;
59938;SDS011;45801;51.810;19.444;2023-12-20T10:35:37;8.50;;;4.10;;
59938;SDS011;45801;51.810;19.444;2023-12-20T10:38:04;7.30;;;4.30;;
59938;SDS011;45801;51.810;19.444;2023-12-20T10:40:35;7.60;;;4.30;;
59938;SDS011;45801;51.810;19.444;2023-12-20T10:43:03;8.10;;;4.20;;
59938;SDS011;45801;51.810;19.444;2023-12-20T10:45:30;7.70;;;4.10;;
59938;SDS011;45801;51.810;19.444;2023-12-20T10:47:56;8.20;;;4.20;;
59938;SDS011;45801;51.810;19.444;2023-12-20T10:50:26;7.50;;;3.90;;
59938;SDS011;45801;51.810;19.444;2023-12-20T10:52:54;9.00;;;4.30;;
59938;SDS011;45801;51.810;19.444;2023-12-20T10:55:22;8.80;;;4.60;;
59938;SDS011;45801;51.810;19.444;2023-12-20T10:57:52;7.10;;;3.90;;
59938;SDS011;45801;51.810;19.444;2023-12-20T11:00:23;8.30;;;4.30;;
59938;SDS011;45801;51.810;19.444;2023-12-20T11:02:50;9.40;;;4.60;;
59938;SDS011;45801;51.810;19.444;2023-12-20T11:08:01;8.80;;;4.40;;
59938;SDS011;45801;51.810;19.444;2023-12-20T11:10:36;7.10;;;3.80;;
59938;SDS011;45801;51.810;19.444;2023-12-20T11:13:08;8.00;;;4.20;;
59938;SDS011;45801;51.810;19.444;2023-12-20T11:15:38;8.10;;;4.20;;
59938;SDS011;45801;51.810;19.444;2023-12-20T11:18:05;8.70;;;5.00;;
59938;SDS011;45801;51.810;19.444;2023-12-20T11:20:36;8.80;;;4.70;;
59938;SDS011;45801;51.810;19.444;2023-12-20T11:23:04;8.40;;;4.70;;
59938;SDS011;45801;51.810;19.444;2023-12-20T11:28:21;9.70;;;5.50;;
59938;SDS011;45801;51.810;19.444;2023-12-20T11:30:50;10.90;;;6.20;;
59938;SDS011;45801;51.810;19.444;2023-12-20T11:33:37;10.50;;;6.20;;
59938;SDS011;45801;51.810;19.444;2023-12-20T11:36:06;12.60;;;6.70;;
59938;SDS011;45801;51.810;19.444;2023-12-20T11:38:55;10.50;;;6.20;;
59938;SDS011;45801;51.810;19.444;2023-12-20T11:41:23;9.60;;;5.60;;
59938;SDS011;45801;51.810;19.444;2023-12-20T11:43:52;10.20;;;6.10;;
59938;SDS011;45801;51.810;19.444;2023-12-20T11:46:20;10.80;;;6.80;;
59938;SDS011;45801;51.810;19.444;2023-12-20T11:48:46;10.60;;;6.60;;
59938;SDS011;45801;51.810;19.444;2023-12-20T11:51:14;9.80;;;6.20;;
59938;SDS011;45801;51.810;19.444;2023-12-20T11:53:41;9.90;;;6.20;;
59938;SDS011;45801;51.810;19.444;2023-12-20T11:56:08;10.40;;;6.60;;
59938;SDS011;45801;51.810;19.444;2023-12-20T11:58:36;14.00;;;7.30;;
59938;SDS011;45801;51.810;19.444;2023-12-20T12:01:03;11.30;;;6.80;;
59938;SDS011;45801;51.810;19.444;2023-12-20T12:03:33;12.80;;;7.50;;
59938;SDS011;45801;51.810;19.444;2023-12-20T12:06:00;11.20;;;7.50;;
59938;SDS011;45801;51.810;19.444;2023-12-20T12:08:27;14.10;;;9.60;;
59938;SDS011;45801;51.810;19.444;2023-12-20T12:10:53;10.50;;;6.10;;
59938;SDS011;45801;51.810;19.444;2023-12-20T12:13:20;11.50;;;7.00;;
59938;SDS011;45801;51.810;19.444;2023-12-20T12:15:47;11.20;;;6.80;;
59938;SDS011;45801;51.810;19.444;2023-12-20T12:18:17;11.10;;;6.90;;
59938;SDS011;45801;51.810;19.444;2023-12-20T12:20:44;11.60;;;6.60;;
59938;SDS011;45801;51.810;19.444;2023-12-20T12:23:12;12.10;;;7.40;;
59938;SDS011;45801;51.810;19.444;2023-12-20T12:25:38;16.20;;;13.00;;
59938;SDS011;45801;51.810;19.444;2023-12-20T12:28:05;13.00;;;8.10;;
59938;SDS011;45801;51.810;19.444;2023-12-20T12:30:31;11.00;;;6.70;;
59938;SDS011;45801;51.810;19.444;2023-12-20T12:32:59;10.10;;;6.00;;
59938;SDS011;45801;51.810;19.444;2023-12-20T12:35:27;10.90;;;7.00;;
59938;SDS011;45801;51.810;19.444;2023-12-20T12:37:53;10.20;;;5.30;;
59938;SDS011;45801;51.810;19.444;2023-12-20T12:40:20;11.10;;;6.60;;
59938;SDS011;45801;51.810;19.444;2023-12-20T12:42:46;11.10;;;5.70;;
59938;SDS011;45801;51.810;19.444;2023-12-20T12:45:13;9.40;;;4.30;;
59938;SDS011;45801;51.810;19.444;2023-12-20T12:47:39;8.70;;;4.10;;
59938;SDS011;45801;51.810;19.444;2023-12-20T12:50:06;8.80;;;5.00;;
59938;SDS011;45801;51.810;19.444;2023-12-20T12:52:33;9.90;;;5.10;;
59938;SDS011;45801;51.810;19.444;2023-12-20T12:54:59;10.80;;;6.70;;
59938;SDS011;45801;51.810;19.444;2023-12-20T12:57:26;10.90;;;5.20;;
59938;SDS011;45801;51.810;19.444;2023-12-20T12:59:53;10.40;;;5.40;;
59938;SDS011;45801;51.810;19.444;2023-12-20T13:02:19;10.10;;;5.90;;
59938;SDS011;45801;51.810;19.444;2023-12-20T13:04:46;8.80;;;5.10;;
59938;SDS011;45801;51.810;19.444;2023-12-20T13:07:12;9.90;;;5.80;;
59938;SDS011;45801;51.810;19.444;2023-12-20T13:09:39;11.00;;;6.00;;
59938;SDS011;45801;51.810;19.444;2023-12-20T13:12:06;10.20;;;5.90;;
59938;SDS011;45801;51.810;19.444;2023-12-20T13:14:33;9.50;;;4.90;;
59938;SDS011;45801;51.810;19.444;2023-12-20T13:17:01;8.60;;;5.60;;
59938;SDS011;45801;51.810;19.444;2023-12-20T13:19:28;10.60;;;5.10;;
59938;SDS011;45801;51.810;19.444;2023-12-20T13:21:55;9.70;;;5.40;;
59938;SDS011;45801;51.810;19.444;2023-12-20T13:24:21;11.70;;;5.90;;
59938;SDS011;45801;51.810;19.444;2023-12-20T13:26:48;10.70;;;4.90;;
59938;SDS011;45801;51.810;19.444;2023-12-20T13:29:14;12.80;;;6.10;;
59938;SDS011;45801;51.810;19.444;2023-12-20T13:31:41;9.60;;;5.60;;
59938;SDS011;45801;51.810;19.444;2023-12-20T13:34:07;10.00;;;5.70;;
59938;SDS011;45801;51.810;19.444;2023-12-20T13:36:34;10.10;;;4.70;;
59938;SDS011;45801;51.810;19.444;2023-12-20T13:39:00;10.20;;;4.30;;
59938;SDS011;45801;51.810;19.444;2023-12-20T13:41:28;9.80;;;4.70;;
59938;SDS011;45801;51.810;19.444;2023-12-20T13:46:52;10.90;;;4.40;;
59938;SDS011;45801;51.810;19.444;2023-12-20T13:49:18;9.10;;;5.00;;
59938;SDS011;45801;51.810;19.444;2023-12-20T13:51:45;10.10;;;4.50;;
59938;SDS011;45801;51.810;19.444;2023-12-20T13:54:11;8.70;;;3.80;;
59938;SDS011;45801;51.810;19.444;2023-12-20T13:56:38;9.00;;;4.50;;
59938;SDS011;45801;51.810;19.444;2023-12-20T13:59:04;10.70;;;4.80;;
59938;SDS011;45801;51.810;19.444;2023-12-20T14:01:31;8.30;;;4.30;;
59938;SDS011;45801;51.810;19.444;2023-12-20T14:03:57;8.20;;;4.30;;
59938;SDS011;45801;51.810;19.444;2023-12-20T14:06:24;11.30;;;5.60;;
59938;SDS011;45801;51.810;19.444;2023-12-20T14:08:50;10.00;;;5.10;;
59938;SDS011;45801;51.810;19.444;2023-12-20T14:11:17;12.50;;;5.70;;
59938;SDS011;45801;51.810;19.444;2023-12-20T14:13:43;10.30;;;5.10;;
59938;SDS011;45801;51.810;19.444;2023-12-20T14:16:10;9.60;;;4.80;;
59938;SDS011;45801;51.810;19.444;2023-12-20T14:18:37;17.90;;;8.80;;
59938;SDS011;45801;51.810;19.444;2023-12-20T14:21:03;17.10;;;7.50;;
59938;SDS011;45801;51.810;19.444;2023-12-20T14:23:32;11.90;;;5.10;;
59938;SDS011;45801;51.810;19.444;2023-12-20T14:25:59;13.40;;;6.40;;
59938;SDS011;45801;51.810;19.444;2023-12-20T14:28:26;12.10;;;4.90;;
59938;SDS011;45801;51.810;19.444;2023-12-20T14:30:53;11.70;;;5.80;;
59938;SDS011;45801;51.810;19.444;2023-12-20T14:33:19;13.00;;;6.10;;
59938;SDS011;45801;51.810;19.444;2023-12-20T14:35:48;14.60;;;5.90;;
59938;SDS011;45801;51.810;19.444;2023-12-20T14:38:14;10.40;;;4.80;;
59938;SDS011;45801;51.810;19.444;2023-12-20T14:40:41;11.80;;;5.00;;
59938;SDS011;45801;51.810;19.444;2023-12-20T14:43:08;11.60;;;4.30;;
59938;SDS011;45801;51.810;19.444;2023-12-20T14:45:35;11.90;;;4.90;;